Accueil
METAR-TAF:

METAR-TAF

Aéroports :

Aéroport international de Hanovre Langenhagen

Hanovre, Allemagne

latitude: 52-28N, longitude: 009-41E, altitude: 56 m

Observation

Le bulletin a été fait il y a 45 minutes, à 03:20 UTC
Vent 5 kt de est
Température 11°C
Humidité 100%
Pression 1011 hPa
Visibilité: 9000 m

METAR: EDDV 210320Z AUTO 08005KT 9000 NCD 11/11 Q1011

Heure: 06:05 (04:05 UTC)

Prévision

Le bulletin a été fait il y a 5 heures et 5 minutes, à 23:00 UTC
Prévision valable du 21 à 00 UTC au 21 à 24 UTC
Vent 6 kt de est
Visibilité 10 km ou plus
pas de nuages en-dessous de 1500 mètres et pas de cumulonimbus.
Evoluant progressivement
du 21 à 05 UTC au 21 à 07 UTC
Vent 11 kt de est/nord-est
Probabilité 30% :
Temporairement
du 21 à 21 UTC au 21 à 24 UTC
Nuages fragmentés à une hauteur de 3000 ft, Cumulonimbus.
averses de pluie,

TAF: EDDV 202300Z 2100/2124 08006KT CAVOK BECMG 2105/2107 07011KT PROB30 TEMPO 2121/2124 SHRA BKN030CB

Observations et prévisions météorologiques de plus de 4000 aéroports (messages METAR et TAF).

Les stations disponibles sont représentées par des disques jaunes et rouges sur la carte.

Passer la souris dessus pour voir le nom de la station.

Cliquer dessus pour voir les observations et prévisions météorologiques.

Pour changer de carte: cliquez sur les boutons verts avec une croix noire pour zoomer, sur le bouton vert avec un tiret pour effectuer un zoom arrière, ou sur les flèches vertes pour les cartes adjacentes.


METAR-TAF: